createdAt,value
2022-10-21T00:00:39.686Z,16.30
2022-10-21T00:03:09.530Z,16.20
2022-10-21T00:05:37.907Z,16.20
2022-10-21T00:08:06.464Z,16.10
2022-10-21T00:10:35.262Z,16.10
2022-10-21T00:13:05.058Z,16.00
2022-10-21T00:15:33.482Z,16.00
2022-10-21T00:18:01.869Z,16.00
2022-10-21T00:20:31.187Z,16.00
2022-10-21T00:23:01.039Z,16.10
2022-10-21T00:25:29.400Z,16.10
2022-10-21T00:27:57.791Z,16.10
2022-10-21T00:30:27.561Z,16.10
2022-10-21T00:33:00.688Z,16.10
2022-10-21T00:35:33.905Z,16.20
2022-10-21T00:38:02.242Z,16.20
2022-10-21T00:40:30.682Z,16.20
2022-10-21T00:42:59.029Z,16.20
2022-10-21T00:45:29.924Z,16.30
2022-10-21T00:48:00.943Z,16.30
2022-10-21T00:50:31.923Z,16.30
2022-10-21T00:53:01.267Z,16.40
2022-10-21T00:55:33.733Z,16.40
2022-10-21T00:58:03.487Z,16.50
2022-10-21T01:00:33.248Z,16.40
2022-10-21T01:03:01.691Z,16.40
2022-10-21T01:05:31.371Z,16.40
2022-10-21T01:07:59.833Z,16.40
2022-10-21T01:10:28.186Z,16.40
2022-10-21T01:13:06.410Z,16.30
2022-10-21T01:15:37.917Z,16.30
2022-10-21T01:18:10.136Z,16.30
2022-10-21T01:20:47.086Z,16.30
2022-10-21T01:23:29.378Z,16.20
2022-10-21T01:26:12.515Z,16.10
2022-10-21T01:28:45.317Z,16.00
2022-10-21T01:31:18.107Z,16.10
2022-10-21T01:33:50.632Z,16.10
2022-10-21T01:36:25.450Z,16.10
2022-10-21T01:39:03.631Z,16.20
2022-10-21T01:41:35.637Z,16.20
2022-10-21T01:44:07.516Z,16.20
2022-10-21T01:46:40.289Z,16.30
2022-10-21T01:49:10.834Z,16.30
2022-10-21T01:51:39.312Z,16.30
2022-10-21T01:54:10.173Z,16.30
2022-10-21T01:56:40.309Z,16.30
2022-10-21T01:59:09.346Z,16.20
2022-10-21T02:01:40.125Z,16.20
2022-10-21T02:04:09.969Z,16.10
2022-10-21T02:06:38.381Z,16.20
2022-10-21T02:09:06.883Z,16.20
2022-10-21T02:11:36.561Z,16.20
2022-10-21T02:14:07.374Z,16.30
2022-10-21T02:16:38.034Z,16.30
2022-10-21T02:19:13.077Z,16.20
2022-10-21T02:21:41.686Z,16.30
2022-10-21T02:24:14.033Z,16.30
2022-10-21T02:26:42.652Z,16.40
2022-10-21T02:29:11.076Z,16.30
2022-10-21T02:31:47.053Z,16.30
2022-10-21T02:34:21.700Z,16.20
2022-10-21T02:36:54.175Z,16.20
2022-10-21T02:39:27.204Z,16.20
2022-10-21T02:41:56.490Z,16.10
2022-10-21T02:44:24.945Z,16.10
2022-10-21T02:46:53.421Z,16.10
2022-10-21T02:49:23.524Z,16.10
2022-10-21T02:51:52.378Z,16.00
2022-10-21T02:54:21.260Z,16.00
2022-10-21T02:56:50.098Z,16.00
2022-10-21T02:59:18.926Z,16.10
2022-10-21T03:01:47.822Z,16.00
2022-10-21T03:04:16.556Z,16.10
2022-10-21T03:06:46.676Z,16.10
2022-10-21T03:09:15.483Z,16.20
2022-10-21T03:11:44.328Z,16.10
2022-10-21T03:14:13.118Z,16.10
2022-10-21T03:16:41.906Z,16.10
2022-10-21T03:19:11.319Z,16.10
2022-10-21T03:21:40.197Z,16.10
2022-10-21T03:24:15.413Z,16.10
2022-10-21T03:26:56.555Z,16.10
2022-10-21T03:29:25.425Z,16.00
2022-10-21T03:31:54.204Z,16.00
2022-10-21T03:34:22.950Z,16.00
2022-10-21T03:36:51.724Z,16.00
2022-10-21T03:39:21.859Z,16.00
2022-10-21T03:41:50.717Z,16.00
2022-10-21T03:44:19.475Z,15.90
2022-10-21T03:46:48.234Z,15.90
2022-10-21T03:49:21.405Z,16.00
2022-10-21T03:51:51.154Z,16.10
2022-10-21T03:54:21.786Z,16.10
2022-10-21T03:56:50.513Z,16.00
2022-10-21T03:59:19.272Z,15.90
2022-10-21T04:01:48.330Z,15.80
2022-10-21T04:04:17.159Z,15.80
2022-10-21T04:06:45.914Z,15.80
2022-10-21T04:09:14.903Z,15.90
2022-10-21T04:11:45.086Z,15.90
2022-10-21T04:14:15.449Z,15.90
2022-10-21T04:16:46.130Z,15.90
2022-10-21T04:19:19.492Z,16.00
2022-10-21T04:21:48.760Z,16.00
2022-10-21T04:24:17.554Z,16.00
2022-10-21T04:26:47.803Z,16.00
2022-10-21T04:29:16.547Z,16.00
2022-10-21T04:31:45.322Z,15.90
2022-10-21T04:34:14.352Z,15.90
2022-10-21T04:36:43.097Z,15.90
2022-10-21T04:39:11.866Z,15.90
2022-10-21T04:41:40.664Z,15.90
2022-10-21T04:44:10.742Z,15.90
2022-10-21T04:46:39.523Z,15.90
2022-10-21T04:49:08.401Z,15.90
2022-10-21T04:51:37.180Z,15.90
2022-10-21T04:54:05.972Z,15.80
2022-10-21T04:56:34.738Z,15.90
2022-10-21T04:59:03.525Z,15.90
2022-10-21T05:01:33.754Z,15.90
2022-10-21T05:04:02.629Z,15.90
2022-10-21T05:06:31.414Z,15.80
2022-10-21T05:09:00.308Z,15.80
2022-10-21T05:11:30.530Z,15.90
2022-10-21T05:13:59.311Z,15.90
2022-10-21T05:16:28.027Z,15.90
2022-10-21T05:18:58.333Z,15.90
2022-10-21T05:21:27.325Z,15.90
2022-10-21T05:23:56.122Z,16.00
2022-10-21T05:26:25.447Z,16.00
2022-10-21T05:28:54.181Z,15.90
2022-10-21T05:31:23.017Z,15.90
2022-10-21T05:33:51.947Z,15.90
2022-10-21T05:36:24.084Z,16.00
2022-10-21T05:38:53.836Z,15.90
2022-10-21T05:41:22.845Z,15.80
2022-10-21T05:43:51.578Z,15.90
2022-10-21T05:46:20.293Z,15.90
2022-10-21T05:51:26.545Z,15.90
2022-10-21T05:53:55.420Z,15.80
2022-10-21T05:56:24.197Z,15.90
2022-10-21T05:58:53.031Z,15.90
2022-10-21T06:01:21.780Z,15.80
2022-10-21T06:03:50.337Z,15.80
2022-10-21T06:06:18.773Z,15.80
2022-10-21T06:08:48.558Z,15.90
2022-10-21T06:11:18.528Z,15.90
2022-10-21T06:13:48.051Z,15.90
2022-10-21T06:16:16.605Z,15.90
2022-10-21T06:18:45.074Z,16.00
2022-10-21T06:21:13.817Z,16.10
2022-10-21T06:23:42.645Z,16.20
2022-10-21T06:26:16.380Z,16.20
2022-10-21T06:28:45.797Z,16.20
2022-10-21T06:31:16.929Z,16.10
2022-10-21T06:33:45.722Z,16.10
2022-10-21T06:36:14.522Z,16.10
2022-10-21T06:38:43.567Z,16.20
2022-10-21T06:41:15.286Z,16.20
2022-10-21T06:43:44.460Z,16.40
2022-10-21T06:46:15.346Z,16.50
2022-10-21T06:48:44.332Z,16.50
2022-10-21T06:51:16.198Z,16.50
2022-10-21T06:53:45.728Z,16.50
2022-10-21T06:56:17.733Z,16.50
2022-10-21T06:58:48.243Z,16.60
2022-10-21T07:01:33.660Z,16.70
2022-10-21T07:04:07.927Z,16.80
2022-10-21T07:06:36.836Z,17.00
2022-10-21T07:09:06.797Z,17.10
2022-10-21T07:11:36.771Z,17.10
2022-10-21T07:14:05.735Z,17.20
2022-10-21T07:16:35.168Z,17.20
2022-10-21T07:19:04.229Z,17.30
2022-10-21T07:21:33.372Z,17.40
2022-10-21T07:24:01.964Z,17.50
2022-10-21T07:26:30.859Z,17.50
2022-10-21T07:29:01.879Z,17.60
2022-10-21T07:31:32.611Z,17.70
2022-10-21T07:34:01.155Z,17.90
2022-10-21T07:36:30.921Z,18.00
2022-10-21T07:39:02.460Z,18.30
2022-10-21T07:41:31.755Z,18.40
2022-10-21T07:44:02.361Z,18.70
2022-10-21T07:46:31.267Z,18.90
2022-10-21T07:48:59.877Z,19.20
2022-10-21T07:51:30.194Z,19.60
2022-10-21T07:54:00.282Z,19.80
2022-10-21T07:56:30.073Z,20.00
2022-10-21T07:59:01.608Z,20.20
2022-10-21T08:01:31.574Z,20.30
2022-10-21T08:04:00.007Z,20.40
2022-10-21T08:06:28.915Z,20.60
2022-10-21T08:08:58.346Z,20.80
2022-10-21T08:11:27.875Z,21.00
2022-10-21T08:13:56.330Z,21.20
2022-10-21T08:16:25.365Z,21.20
2022-10-21T08:18:55.422Z,21.20
2022-10-21T08:21:23.843Z,21.30
2022-10-21T08:23:52.296Z,21.30
2022-10-21T08:26:20.739Z,21.30
2022-10-21T08:28:49.246Z,21.40
2022-10-21T08:31:19.213Z,21.60
2022-10-21T08:33:47.651Z,21.70
2022-10-21T08:36:18.684Z,21.60
2022-10-21T08:38:47.193Z,21.50
2022-10-21T08:41:36.258Z,21.60
2022-10-21T08:44:07.322Z,21.60
2022-10-21T08:46:37.029Z,21.60
2022-10-21T08:49:08.367Z,21.50
2022-10-21T08:51:39.606Z,21.40
2022-10-21T08:54:12.987Z,21.40
2022-10-21T08:56:41.663Z,21.30
2022-10-21T08:59:17.576Z,21.30
2022-10-21T09:01:50.251Z,21.30
2022-10-21T09:04:23.442Z,21.30
2022-10-21T09:06:56.184Z,21.30
2022-10-21T09:09:27.819Z,21.30
2022-10-21T09:12:02.044Z,21.40
2022-10-21T09:14:56.832Z,21.40
2022-10-21T09:17:31.767Z,21.60
2022-10-21T09:20:03.434Z,21.60
2022-10-21T09:22:40.722Z,21.70
2022-10-21T09:25:18.548Z,21.70
2022-10-21T09:28:02.491Z,21.70
2022-10-21T09:30:31.264Z,21.80
2022-10-21T09:33:00.964Z,21.70
2022-10-21T09:35:33.815Z,21.80
2022-10-21T09:38:04.868Z,21.80
2022-10-21T09:40:34.451Z,21.90
2022-10-21T09:43:03.546Z,21.90
2022-10-21T09:45:33.870Z,22.00
2022-10-21T09:48:04.515Z,21.90
2022-10-21T09:50:33.710Z,21.70
2022-10-21T09:53:06.029Z,21.70
2022-10-21T09:55:34.609Z,21.70
2022-10-21T09:58:03.447Z,21.90
2022-10-21T10:00:46.410Z,22.00
2022-10-21T10:03:30.033Z,22.00
2022-10-21T10:05:58.488Z,22.10
2022-10-21T10:08:31.296Z,22.10
2022-10-21T10:11:03.418Z,22.20
2022-10-21T10:13:32.257Z,22.30
2022-10-21T10:16:17.393Z,22.20
2022-10-21T10:18:46.221Z,22.30
2022-10-21T10:21:15.412Z,22.30
2022-10-21T10:23:46.368Z,22.40
2022-10-21T10:26:28.685Z,22.40
2022-10-21T10:28:58.279Z,22.40
2022-10-21T10:31:32.569Z,22.50
2022-10-21T10:34:03.599Z,22.50
2022-10-21T10:36:33.581Z,22.60
2022-10-21T10:39:03.710Z,22.60
2022-10-21T10:41:33.984Z,22.60
2022-10-21T10:44:03.254Z,22.70
2022-10-21T10:46:32.333Z,22.70
2022-10-21T10:49:05.677Z,22.80
2022-10-21T10:51:36.504Z,22.80
2022-10-21T10:54:19.114Z,22.80
2022-10-21T10:56:52.894Z,23.00
2022-10-21T10:59:32.137Z,23.00
2022-10-21T11:02:02.257Z,23.10
2022-10-21T11:04:33.689Z,23.20
2022-10-21T11:07:05.701Z,23.30
2022-10-21T11:09:35.670Z,23.40
2022-10-21T11:12:06.758Z,23.20
2022-10-21T11:14:35.482Z,23.20
2022-10-21T11:17:08.605Z,23.10
2022-10-21T11:19:43.452Z,23.10
2022-10-21T11:22:24.860Z,23.00
2022-10-21T11:25:02.572Z,23.10
2022-10-21T11:27:48.542Z,23.20
2022-10-21T11:30:19.925Z,23.30
2022-10-21T11:32:56.725Z,23.30
2022-10-21T11:35:32.999Z,23.40
2022-10-21T11:38:16.350Z,23.30
2022-10-21T11:40:49.594Z,23.40
2022-10-21T11:43:28.864Z,23.50
2022-10-21T11:46:00.968Z,23.60
2022-10-21T11:48:36.196Z,23.50
2022-10-21T11:51:14.124Z,23.60
2022-10-21T11:53:50.613Z,23.70
2022-10-21T11:56:24.833Z,23.70
2022-10-21T11:59:01.996Z,23.70
2022-10-21T12:01:33.366Z,23.70
2022-10-21T12:04:17.477Z,23.70
2022-10-21T12:06:52.565Z,23.60
2022-10-21T12:09:23.746Z,23.60
2022-10-21T12:11:55.889Z,23.80
2022-10-21T12:14:31.025Z,23.90
2022-10-21T12:17:01.123Z,23.90
2022-10-21T12:19:29.731Z,23.90
2022-10-21T12:21:58.638Z,24.00
2022-10-21T12:24:30.167Z,23.90
2022-10-21T12:27:03.950Z,23.90
2022-10-21T12:29:38.520Z,23.70
2022-10-21T12:32:07.947Z,23.90
2022-10-21T12:34:36.505Z,24.00
2022-10-21T12:37:04.906Z,23.90
2022-10-21T12:39:50.671Z,23.90
2022-10-21T12:42:23.949Z,24.00
2022-10-21T12:44:53.503Z,24.20
2022-10-21T12:47:26.197Z,24.30
2022-10-21T12:50:05.812Z,24.10
2022-10-21T12:52:38.488Z,24.10
2022-10-21T12:55:08.801Z,24.00
2022-10-21T12:57:40.789Z,24.00
2022-10-21T13:00:16.339Z,23.90
2022-10-21T13:03:02.670Z,23.60
2022-10-21T13:05:50.253Z,23.50
2022-10-21T13:08:27.314Z,23.20
2022-10-21T13:11:19.499Z,23.00
2022-10-21T13:13:50.102Z,22.80
2022-10-21T13:16:41.454Z,22.80
2022-10-21T13:19:34.246Z,22.50
2022-10-21T13:22:03.974Z,22.30
2022-10-21T13:24:33.923Z,22.20
2022-10-21T13:27:03.865Z,22.10
2022-10-21T13:29:41.031Z,22.20
2022-10-21T13:32:33.073Z,22.20
2022-10-21T13:35:08.923Z,22.10
2022-10-21T13:37:39.944Z,22.00
2022-10-21T13:40:10.072Z,21.90
2022-10-21T13:42:41.482Z,21.80
2022-10-21T13:45:19.597Z,21.80
2022-10-21T13:47:59.438Z,21.70
2022-10-21T13:50:28.522Z,21.70
2022-10-21T13:52:56.945Z,21.70
2022-10-21T13:55:25.961Z,21.70
2022-10-21T13:57:55.372Z,21.80
2022-10-21T14:00:25.912Z,21.90
2022-10-21T14:02:55.090Z,21.80
2022-10-21T14:05:37.086Z,21.70
2022-10-21T14:08:06.455Z,21.70
2022-10-21T14:10:34.896Z,21.60
2022-10-21T14:13:05.531Z,21.50
2022-10-21T14:15:40.930Z,21.50
2022-10-21T14:18:10.272Z,21.60
2022-10-21T14:20:39.255Z,21.60
2022-10-21T14:23:09.782Z,21.80
2022-10-21T14:25:38.656Z,21.80
2022-10-21T14:28:07.092Z,21.60
2022-10-21T14:30:37.199Z,21.70
2022-10-21T14:33:06.332Z,21.70
2022-10-21T14:35:34.624Z,21.70
2022-10-21T14:38:04.298Z,21.70
2022-10-21T14:40:33.496Z,21.60
2022-10-21T14:43:02.403Z,21.70
2022-10-21T14:45:32.069Z,21.60
2022-10-21T14:48:09.576Z,21.60
2022-10-21T14:50:38.507Z,21.70
2022-10-21T14:53:14.489Z,21.80
2022-10-21T14:55:43.460Z,21.80
2022-10-21T14:58:16.127Z,21.80
2022-10-21T15:00:44.543Z,21.80
2022-10-21T15:03:14.387Z,21.80
2022-10-21T15:05:48.540Z,21.70
2022-10-21T15:08:28.925Z,21.70
2022-10-21T15:11:15.636Z,21.70
2022-10-21T15:13:56.460Z,21.70
2022-10-21T15:16:27.054Z,21.80
2022-10-21T15:18:56.925Z,21.70
2022-10-21T15:21:27.095Z,21.70
2022-10-21T15:23:57.705Z,21.70
2022-10-21T15:26:27.312Z,21.70
2022-10-21T15:28:55.886Z,21.60
2022-10-21T15:31:25.212Z,21.60
2022-10-21T15:33:54.317Z,21.70
2022-10-21T15:36:24.503Z,21.70
2022-10-21T15:38:54.702Z,21.60
2022-10-21T15:41:24.530Z,21.60
2022-10-21T15:43:58.103Z,21.60
2022-10-21T15:46:27.405Z,21.70
2022-10-21T15:48:55.971Z,21.70
2022-10-21T15:51:25.764Z,21.60
2022-10-21T15:53:54.157Z,21.70
2022-10-21T15:56:22.510Z,21.70
2022-10-21T15:58:50.947Z,21.60
2022-10-21T16:01:19.656Z,21.60
2022-10-21T16:03:48.066Z,21.50
2022-10-21T16:06:17.553Z,21.50
2022-10-21T16:08:47.515Z,21.50
2022-10-21T16:11:25.267Z,21.50
2022-10-21T16:13:58.419Z,21.40
2022-10-21T16:16:27.458Z,21.40
2022-10-21T16:18:55.819Z,21.40
2022-10-21T16:21:24.265Z,21.40
2022-10-21T16:23:55.774Z,21.40
2022-10-21T16:26:25.344Z,21.30
2022-10-21T16:28:54.872Z,21.20
2022-10-21T16:31:23.337Z,21.20
2022-10-21T16:33:51.682Z,21.20
2022-10-21T16:36:21.047Z,21.30
2022-10-21T16:38:50.607Z,21.30
2022-10-21T16:41:21.651Z,21.30
2022-10-21T16:43:50.066Z,21.30
2022-10-21T16:46:24.098Z,21.20
2022-10-21T16:48:53.905Z,21.10
2022-10-21T16:51:23.709Z,21.10
2022-10-21T16:53:52.154Z,21.00
2022-10-21T16:56:22.150Z,21.00
2022-10-21T16:58:51.471Z,20.90
2022-10-21T17:01:21.040Z,20.90
2022-10-21T17:03:49.574Z,20.80
2022-10-21T17:06:20.186Z,20.90
2022-10-21T17:08:48.985Z,20.90
2022-10-21T17:11:18.569Z,20.80
2022-10-21T17:13:48.334Z,20.80
2022-10-21T17:16:16.874Z,20.80
2022-10-21T17:18:45.318Z,20.80
2022-10-21T17:21:17.874Z,20.80
2022-10-21T17:23:46.233Z,20.70
2022-10-21T17:26:14.584Z,20.60
2022-10-21T17:28:42.998Z,20.60
2022-10-21T17:31:15.510Z,20.60
2022-10-21T17:33:44.129Z,20.80
2022-10-21T17:36:12.950Z,20.70
2022-10-21T17:38:41.938Z,20.70
2022-10-21T17:41:10.347Z,20.60
2022-10-21T17:43:39.046Z,20.60
2022-10-21T17:46:07.446Z,20.60
2022-10-21T17:48:37.333Z,20.50
2022-10-21T17:51:05.868Z,20.40
2022-10-21T17:53:34.214Z,20.30
2022-10-21T17:56:03.303Z,20.30
2022-10-21T17:58:32.041Z,20.30
2022-10-21T18:01:00.495Z,20.30
2022-10-21T18:03:32.215Z,20.30
2022-10-21T18:06:05.080Z,20.20
2022-10-21T18:08:33.599Z,20.20
2022-10-21T18:11:02.349Z,20.20
2022-10-21T18:13:31.551Z,20.20
2022-10-21T18:16:02.721Z,20.10
2022-10-21T18:18:31.266Z,20.10
2022-10-21T18:21:02.905Z,20.10
2022-10-21T18:23:31.339Z,20.10
2022-10-21T18:26:03.873Z,20.10
2022-10-21T18:28:32.458Z,20.00
2022-10-21T18:31:00.987Z,20.00
2022-10-21T18:33:29.527Z,20.00
2022-10-21T18:35:57.903Z,20.00
2022-10-21T18:38:27.690Z,19.90
2022-10-21T18:41:01.951Z,19.90
2022-10-21T18:43:37.145Z,19.90
2022-10-21T18:46:06.027Z,19.90
2022-10-21T18:48:34.475Z,19.80
2022-10-21T18:51:06.277Z,19.80
2022-10-21T18:53:36.593Z,19.80
2022-10-21T18:56:05.454Z,19.80
2022-10-21T18:58:34.337Z,19.80
2022-10-21T19:01:02.849Z,19.80
2022-10-21T19:03:31.617Z,19.80
2022-10-21T19:06:14.830Z,19.80
2022-10-21T19:08:44.723Z,19.60
2022-10-21T19:11:13.391Z,19.60
2022-10-21T19:13:41.830Z,19.50
2022-10-21T19:16:10.207Z,19.60
2022-10-21T19:18:38.614Z,19.50
2022-10-21T19:21:07.293Z,19.50
2022-10-21T19:23:35.761Z,19.60
2022-10-21T19:26:06.296Z,19.60
2022-10-21T19:28:35.076Z,19.50
2022-10-21T19:31:03.628Z,19.60
2022-10-21T19:33:31.983Z,19.50
2022-10-21T19:36:00.723Z,19.40
2022-10-21T19:38:44.943Z,19.40
2022-10-21T19:41:16.909Z,19.40
2022-10-21T19:43:45.362Z,19.30
2022-10-21T19:46:17.438Z,19.30
2022-10-21T19:48:47.487Z,19.40
2022-10-21T19:51:16.608Z,19.40
2022-10-21T19:53:45.327Z,19.30
2022-10-21T19:56:15.854Z,19.40
2022-10-21T19:58:46.460Z,19.30
2022-10-21T20:01:16.134Z,19.30
2022-10-21T20:03:45.456Z,19.30
2022-10-21T20:06:14.994Z,19.30
2022-10-21T20:08:43.476Z,19.20
2022-10-21T20:11:12.740Z,19.30
2022-10-21T20:13:43.039Z,19.30
2022-10-21T20:16:15.311Z,19.30
2022-10-21T20:18:43.763Z,19.30
2022-10-21T20:21:12.146Z,19.30
2022-10-21T20:23:40.611Z,19.30
2022-10-21T20:26:09.144Z,19.30
2022-10-21T20:28:37.641Z,19.20
2022-10-21T20:31:08.733Z,19.20
2022-10-21T20:33:38.010Z,19.20
2022-10-21T20:36:06.741Z,19.20
2022-10-21T20:38:35.272Z,19.10
2022-10-21T20:41:06.582Z,19.10
2022-10-21T20:43:35.465Z,19.20
2022-10-21T20:46:04.003Z,19.20
2022-10-21T20:48:34.438Z,19.20
2022-10-21T20:51:03.425Z,19.10
2022-10-21T20:53:32.499Z,19.10
2022-10-21T20:56:01.448Z,19.10
2022-10-21T20:58:29.797Z,19.10
2022-10-21T21:00:58.221Z,19.10
2022-10-21T21:03:26.639Z,19.10
2022-10-21T21:05:56.417Z,19.10
2022-10-21T21:08:24.810Z,19.10
2022-10-21T21:10:53.206Z,19.00
2022-10-21T21:13:21.652Z,19.00
2022-10-21T21:15:50.035Z,19.00
2022-10-21T21:18:18.486Z,19.00
2022-10-21T21:20:46.880Z,18.90
2022-10-21T21:23:16.678Z,18.90
2022-10-21T21:25:45.089Z,18.80
2022-10-21T21:28:13.494Z,18.70
2022-10-21T21:30:41.806Z,18.70
2022-10-21T21:33:10.724Z,18.70
2022-10-21T21:35:39.173Z,18.80
2022-10-21T21:38:07.538Z,18.70
2022-10-21T21:40:37.373Z,18.70
2022-10-21T21:43:05.777Z,18.70
2022-10-21T21:45:34.198Z,18.80
2022-10-21T21:48:02.598Z,18.80
2022-10-21T21:50:31.088Z,18.80
2022-10-21T21:52:59.474Z,18.70
2022-10-21T21:55:27.849Z,18.60
2022-10-21T21:57:57.645Z,18.70
2022-10-21T22:00:26.103Z,18.70
2022-10-21T22:02:54.490Z,18.60
2022-10-21T22:05:26.277Z,18.60
2022-10-21T22:07:55.515Z,18.50
2022-10-21T22:10:23.960Z,18.50
2022-10-21T22:12:52.325Z,18.40
2022-10-21T22:15:46.535Z,18.50
2022-10-21T22:18:10.833Z,18.50
2022-10-21T22:20:39.548Z,18.40
2022-10-21T22:23:07.920Z,18.50
2022-10-21T22:25:36.312Z,18.50
2022-10-21T22:28:04.649Z,18.50
2022-10-21T22:30:34.478Z,18.40
2022-10-21T22:33:02.877Z,18.40
2022-10-21T22:35:31.289Z,18.30
2022-10-21T22:37:59.712Z,18.20
2022-10-21T22:40:28.154Z,18.20
2022-10-21T22:42:56.527Z,18.20
2022-10-21T22:45:24.973Z,18.20
2022-10-21T22:47:54.715Z,18.10
2022-10-21T22:50:23.084Z,18.20
2022-10-21T22:52:51.569Z,18.20
2022-10-21T22:55:20.009Z,18.20
2022-10-21T22:57:48.952Z,18.10
2022-10-21T23:00:17.560Z,18.10
2022-10-21T23:02:46.005Z,18.10
2022-10-21T23:05:16.073Z,18.10
2022-10-21T23:07:44.500Z,18.10
2022-10-21T23:10:12.930Z,18.20
2022-10-21T23:12:41.638Z,18.20
2022-10-21T23:15:10.796Z,18.20
2022-10-21T23:17:39.141Z,18.20
2022-10-21T23:20:08.090Z,18.30
2022-10-21T23:22:38.461Z,18.40
2022-10-21T23:25:07.711Z,18.30
2022-10-21T23:27:36.053Z,18.30
2022-10-21T23:30:04.760Z,18.20
2022-10-21T23:32:33.208Z,18.30
2022-10-21T23:35:01.603Z,18.30
2022-10-21T23:37:29.959Z,18.30
2022-10-21T23:39:59.779Z,18.30
2022-10-21T23:42:28.221Z,18.40
2022-10-21T23:44:56.578Z,18.30
2022-10-21T23:47:24.981Z,18.30
2022-10-21T23:49:53.350Z,18.30
2022-10-21T23:52:21.714Z,18.30
2022-10-21T23:54:50.136Z,18.30
2022-10-21T23:57:19.870Z,18.40
2022-10-21T23:59:48.285Z,18.40
